sensor_id;sensor_type;location;lat;lon;timestamp;P1;durP1;ratioP1;P2;durP2;ratioP2
13753;SDS011;6948;51.216;6.778;2022-10-16T00:02:18;6.17;;;2.20;;
13753;SDS011;6948;51.216;6.778;2022-10-16T00:04:44;6.03;;;2.07;;
13753;SDS011;6948;51.216;6.778;2022-10-16T00:07:10;4.13;;;2.10;;
13753;SDS011;6948;51.216;6.778;2022-10-16T00:09:36;5.27;;;2.10;;
13753;SDS011;6948;51.216;6.778;2022-10-16T00:12:02;4.90;;;2.20;;
13753;SDS011;6948;51.216;6.778;2022-10-16T00:14:29;3.83;;;2.10;;
13753;SDS011;6948;51.216;6.778;2022-10-16T00:16:55;4.20;;;2.30;;
13753;SDS011;6948;51.216;6.778;2022-10-16T00:19:21;2.43;;;1.77;;
13753;SDS011;6948;51.216;6.778;2022-10-16T00:21:47;4.50;;;2.03;;
13753;SDS011;6948;51.216;6.778;2022-10-16T00:24:13;4.37;;;2.00;;
13753;SDS011;6948;51.216;6.778;2022-10-16T00:26:39;4.17;;;1.90;;
13753;SDS011;6948;51.216;6.778;2022-10-16T00:29:06;3.73;;;2.10;;
13753;SDS011;6948;51.216;6.778;2022-10-16T00:31:32;2.87;;;1.73;;
13753;SDS011;6948;51.216;6.778;2022-10-16T00:33:58;3.10;;;1.77;;
13753;SDS011;6948;51.216;6.778;2022-10-16T00:36:25;3.43;;;1.90;;
13753;SDS011;6948;51.216;6.778;2022-10-16T00:38:52;3.77;;;2.00;;
13753;SDS011;6948;51.216;6.778;2022-10-16T00:41:19;3.30;;;1.80;;
13753;SDS011;6948;51.216;6.778;2022-10-16T00:43:47;4.60;;;2.00;;
13753;SDS011;6948;51.216;6.778;2022-10-16T00:49:03;3.60;;;1.77;;
13753;SDS011;6948;51.216;6.778;2022-10-16T00:51:31;3.30;;;1.80;;
13753;SDS011;6948;51.216;6.778;2022-10-16T00:53:57;3.93;;;2.10;;
13753;SDS011;6948;51.216;6.778;2022-10-16T00:56:23;3.53;;;2.00;;
13753;SDS011;6948;51.216;6.778;2022-10-16T00:58:49;4.80;;;2.07;;
13753;SDS011;6948;51.216;6.778;2022-10-16T01:01:15;3.23;;;1.87;;
13753;SDS011;6948;51.216;6.778;2022-10-16T01:03:41;4.03;;;1.97;;
13753;SDS011;6948;51.216;6.778;2022-10-16T01:06:16;4.73;;;1.93;;
13753;SDS011;6948;51.216;6.778;2022-10-16T01:08:58;4.90;;;1.83;;
13753;SDS011;6948;51.216;6.778;2022-10-16T01:11:29;3.93;;;2.20;;
13753;SDS011;6948;51.216;6.778;2022-10-16T01:13:58;3.27;;;1.70;;
13753;SDS011;6948;51.216;6.778;2022-10-16T01:16:43;3.60;;;1.70;;
13753;SDS011;6948;51.216;6.778;2022-10-16T01:19:16;3.57;;;1.87;;
13753;SDS011;6948;51.216;6.778;2022-10-16T01:21:44;6.43;;;2.40;;
13753;SDS011;6948;51.216;6.778;2022-10-16T01:27:07;3.83;;;2.53;;
13753;SDS011;6948;51.216;6.778;2022-10-16T01:29:35;4.33;;;2.70;;
13753;SDS011;6948;51.216;6.778;2022-10-16T01:32:10;5.27;;;2.80;;
13753;SDS011;6948;51.216;6.778;2022-10-16T01:34:48;5.50;;;3.10;;
13753;SDS011;6948;51.216;6.778;2022-10-16T01:37:16;5.17;;;2.67;;
13753;SDS011;6948;51.216;6.778;2022-10-16T01:39:45;6.07;;;2.83;;
13753;SDS011;6948;51.216;6.778;2022-10-16T01:42:15;7.20;;;2.73;;
13753;SDS011;6948;51.216;6.778;2022-10-16T01:44:42;3.23;;;2.50;;
13753;SDS011;6948;51.216;6.778;2022-10-16T01:47:09;4.53;;;2.50;;
13753;SDS011;6948;51.216;6.778;2022-10-16T01:49:36;3.20;;;2.40;;
13753;SDS011;6948;51.216;6.778;2022-10-16T01:52:05;3.53;;;2.33;;
13753;SDS011;6948;51.216;6.778;2022-10-16T01:54:32;4.23;;;2.33;;
13753;SDS011;6948;51.216;6.778;2022-10-16T01:57:00;5.30;;;2.60;;
13753;SDS011;6948;51.216;6.778;2022-10-16T01:59:27;4.73;;;2.10;;
13753;SDS011;6948;51.216;6.778;2022-10-16T02:01:54;3.13;;;1.90;;
13753;SDS011;6948;51.216;6.778;2022-10-16T02:04:39;8.50;;;2.40;;
13753;SDS011;6948;51.216;6.778;2022-10-16T02:07:06;2.57;;;1.90;;
13753;SDS011;6948;51.216;6.778;2022-10-16T02:09:33;3.10;;;1.73;;
13753;SDS011;6948;51.216;6.778;2022-10-16T02:11:59;4.27;;;2.10;;
13753;SDS011;6948;51.216;6.778;2022-10-16T02:14:28;1.90;;;1.70;;
13753;SDS011;6948;51.216;6.778;2022-10-16T02:16:54;2.87;;;1.60;;
13753;SDS011;6948;51.216;6.778;2022-10-16T02:19:20;3.03;;;2.33;;
13753;SDS011;6948;51.216;6.778;2022-10-16T02:21:51;6.97;;;2.10;;
13753;SDS011;6948;51.216;6.778;2022-10-16T02:24:24;2.10;;;1.80;;
13753;SDS011;6948;51.216;6.778;2022-10-16T02:26:54;4.37;;;1.90;;
13753;SDS011;6948;51.216;6.778;2022-10-16T02:29:23;3.93;;;1.90;;
13753;SDS011;6948;51.216;6.778;2022-10-16T02:31:52;3.23;;;1.90;;
13753;SDS011;6948;51.216;6.778;2022-10-16T02:34:19;3.03;;;2.03;;
13753;SDS011;6948;51.216;6.778;2022-10-16T02:36:46;3.37;;;2.00;;
13753;SDS011;6948;51.216;6.778;2022-10-16T02:39:13;3.93;;;2.00;;
13753;SDS011;6948;51.216;6.778;2022-10-16T02:41:39;3.10;;;2.00;;
13753;SDS011;6948;51.216;6.778;2022-10-16T02:44:05;4.33;;;1.90;;
13753;SDS011;6948;51.216;6.778;2022-10-16T02:46:31;4.07;;;2.33;;
13753;SDS011;6948;51.216;6.778;2022-10-16T02:48:57;2.87;;;2.20;;
13753;SDS011;6948;51.216;6.778;2022-10-16T02:51:23;2.93;;;2.00;;
13753;SDS011;6948;51.216;6.778;2022-10-16T02:53:49;3.83;;;2.40;;
13753;SDS011;6948;51.216;6.778;2022-10-16T02:56:15;3.53;;;2.63;;
13753;SDS011;6948;51.216;6.778;2022-10-16T02:58:41;4.07;;;2.30;;
13753;SDS011;6948;51.216;6.778;2022-10-16T03:01:07;3.47;;;2.10;;
13753;SDS011;6948;51.216;6.778;2022-10-16T03:03:33;2.97;;;2.10;;
13753;SDS011;6948;51.216;6.778;2022-10-16T03:05:59;3.03;;;2.37;;
13753;SDS011;6948;51.216;6.778;2022-10-16T03:08:25;3.83;;;2.20;;
13753;SDS011;6948;51.216;6.778;2022-10-16T03:10:51;3.67;;;2.33;;
13753;SDS011;6948;51.216;6.778;2022-10-16T03:13:17;2.97;;;2.33;;
13753;SDS011;6948;51.216;6.778;2022-10-16T03:15:45;3.73;;;2.20;;
13753;SDS011;6948;51.216;6.778;2022-10-16T03:18:11;6.73;;;2.30;;
13753;SDS011;6948;51.216;6.778;2022-10-16T03:20:37;3.30;;;2.27;;
13753;SDS011;6948;51.216;6.778;2022-10-16T03:23:03;3.60;;;2.07;;
13753;SDS011;6948;51.216;6.778;2022-10-16T03:25:30;5.63;;;2.50;;
13753;SDS011;6948;51.216;6.778;2022-10-16T03:27:56;3.33;;;2.40;;
13753;SDS011;6948;51.216;6.778;2022-10-16T03:30:22;3.57;;;2.43;;
13753;SDS011;6948;51.216;6.778;2022-10-16T03:32:48;3.63;;;2.07;;
13753;SDS011;6948;51.216;6.778;2022-10-16T03:35:18;5.10;;;2.67;;
13753;SDS011;6948;51.216;6.778;2022-10-16T03:37:44;3.03;;;2.40;;
13753;SDS011;6948;51.216;6.778;2022-10-16T03:40:10;5.07;;;2.63;;
13753;SDS011;6948;51.216;6.778;2022-10-16T03:42:37;5.70;;;1.90;;
13753;SDS011;6948;51.216;6.778;2022-10-16T03:45:03;4.10;;;2.37;;
13753;SDS011;6948;51.216;6.778;2022-10-16T03:47:29;3.53;;;2.00;;
13753;SDS011;6948;51.216;6.778;2022-10-16T03:49:55;3.60;;;2.20;;
13753;SDS011;6948;51.216;6.778;2022-10-16T03:52:21;4.73;;;2.00;;
13753;SDS011;6948;51.216;6.778;2022-10-16T03:54:47;5.07;;;1.93;;
13753;SDS011;6948;51.216;6.778;2022-10-16T03:57:13;2.43;;;2.10;;
13753;SDS011;6948;51.216;6.778;2022-10-16T03:59:39;3.67;;;1.80;;
13753;SDS011;6948;51.216;6.778;2022-10-16T04:02:05;5.33;;;2.03;;
13753;SDS011;6948;51.216;6.778;2022-10-16T04:04:31;3.10;;;1.77;;
13753;SDS011;6948;51.216;6.778;2022-10-16T04:06:57;4.23;;;2.03;;
13753;SDS011;6948;51.216;6.778;2022-10-16T04:09:23;4.43;;;1.70;;
13753;SDS011;6948;51.216;6.778;2022-10-16T04:11:49;2.87;;;1.77;;
13753;SDS011;6948;51.216;6.778;2022-10-16T04:14:15;4.57;;;1.83;;
13753;SDS011;6948;51.216;6.778;2022-10-16T04:16:41;3.87;;;1.90;;
13753;SDS011;6948;51.216;6.778;2022-10-16T04:19:08;2.00;;;1.80;;
13753;SDS011;6948;51.216;6.778;2022-10-16T04:21:34;3.20;;;1.77;;
13753;SDS011;6948;51.216;6.778;2022-10-16T04:24:00;6.23;;;1.90;;
13753;SDS011;6948;51.216;6.778;2022-10-16T04:26:26;3.87;;;1.67;;
13753;SDS011;6948;51.216;6.778;2022-10-16T04:28:52;3.57;;;1.90;;
13753;SDS011;6948;51.216;6.778;2022-10-16T04:31:19;3.07;;;2.10;;
13753;SDS011;6948;51.216;6.778;2022-10-16T04:33:45;4.03;;;1.60;;
13753;SDS011;6948;51.216;6.778;2022-10-16T04:36:11;2.27;;;1.70;;
13753;SDS011;6948;51.216;6.778;2022-10-16T04:38:37;3.07;;;1.83;;
13753;SDS011;6948;51.216;6.778;2022-10-16T04:41:04;2.10;;;1.90;;
13753;SDS011;6948;51.216;6.778;2022-10-16T04:43:30;4.30;;;1.80;;
13753;SDS011;6948;51.216;6.778;2022-10-16T04:45:56;3.93;;;2.00;;
13753;SDS011;6948;51.216;6.778;2022-10-16T04:48:22;3.70;;;1.90;;
13753;SDS011;6948;51.216;6.778;2022-10-16T04:50:48;2.53;;;1.77;;
13753;SDS011;6948;51.216;6.778;2022-10-16T04:53:14;2.97;;;1.90;;
13753;SDS011;6948;51.216;6.778;2022-10-16T04:55:40;2.57;;;1.80;;
13753;SDS011;6948;51.216;6.778;2022-10-16T04:58:07;3.30;;;2.00;;
13753;SDS011;6948;51.216;6.778;2022-10-16T05:00:33;2.27;;;1.90;;
13753;SDS011;6948;51.216;6.778;2022-10-16T05:02:59;3.10;;;1.93;;
13753;SDS011;6948;51.216;6.778;2022-10-16T05:05:26;3.83;;;2.00;;
13753;SDS011;6948;51.216;6.778;2022-10-16T05:07:52;4.30;;;2.10;;
13753;SDS011;6948;51.216;6.778;2022-10-16T05:10:18;5.47;;;2.00;;
13753;SDS011;6948;51.216;6.778;2022-10-16T05:12:44;7.07;;;2.37;;
13753;SDS011;6948;51.216;6.778;2022-10-16T05:15:10;4.90;;;2.40;;
13753;SDS011;6948;51.216;6.778;2022-10-16T05:17:36;3.00;;;2.00;;
13753;SDS011;6948;51.216;6.778;2022-10-16T05:20:03;3.47;;;2.03;;
13753;SDS011;6948;51.216;6.778;2022-10-16T05:22:29;4.10;;;2.27;;
13753;SDS011;6948;51.216;6.778;2022-10-16T05:24:55;3.47;;;2.20;;
13753;SDS011;6948;51.216;6.778;2022-10-16T05:27:21;4.40;;;2.00;;
13753;SDS011;6948;51.216;6.778;2022-10-16T05:29:47;3.87;;;1.57;;
13753;SDS011;6948;51.216;6.778;2022-10-16T05:32:15;4.17;;;2.00;;
13753;SDS011;6948;51.216;6.778;2022-10-16T05:34:41;3.23;;;1.90;;
13753;SDS011;6948;51.216;6.778;2022-10-16T05:37:07;3.27;;;1.80;;
13753;SDS011;6948;51.216;6.778;2022-10-16T05:39:33;4.10;;;2.20;;
13753;SDS011;6948;51.216;6.778;2022-10-16T05:41:59;4.93;;;1.80;;
13753;SDS011;6948;51.216;6.778;2022-10-16T05:44:25;3.27;;;1.80;;
13753;SDS011;6948;51.216;6.778;2022-10-16T05:46:51;3.27;;;1.87;;
13753;SDS011;6948;51.216;6.778;2022-10-16T05:49:17;3.50;;;1.70;;
13753;SDS011;6948;51.216;6.778;2022-10-16T05:51:43;2.23;;;1.60;;
13753;SDS011;6948;51.216;6.778;2022-10-16T05:54:09;3.83;;;1.90;;
13753;SDS011;6948;51.216;6.778;2022-10-16T05:56:35;3.37;;;1.80;;
13753;SDS011;6948;51.216;6.778;2022-10-16T05:59:02;2.73;;;1.60;;
13753;SDS011;6948;51.216;6.778;2022-10-16T06:01:28;2.33;;;1.67;;
13753;SDS011;6948;51.216;6.778;2022-10-16T06:03:56;2.33;;;2.07;;
13753;SDS011;6948;51.216;6.778;2022-10-16T06:06:23;5.07;;;2.07;;
13753;SDS011;6948;51.216;6.778;2022-10-16T06:08:50;3.93;;;1.97;;
13753;SDS011;6948;51.216;6.778;2022-10-16T06:11:18;3.40;;;2.17;;
13753;SDS011;6948;51.216;6.778;2022-10-16T06:13:44;3.60;;;2.37;;
13753;SDS011;6948;51.216;6.778;2022-10-16T06:16:11;3.77;;;2.23;;
13753;SDS011;6948;51.216;6.778;2022-10-16T06:18:37;2.43;;;2.20;;
13753;SDS011;6948;51.216;6.778;2022-10-16T06:21:07;6.57;;;2.50;;
13753;SDS011;6948;51.216;6.778;2022-10-16T06:23:34;4.17;;;2.43;;
13753;SDS011;6948;51.216;6.778;2022-10-16T06:26:08;3.77;;;2.43;;
13753;SDS011;6948;51.216;6.778;2022-10-16T06:28:35;4.07;;;2.40;;
13753;SDS011;6948;51.216;6.778;2022-10-16T06:31:02;3.57;;;2.17;;
13753;SDS011;6948;51.216;6.778;2022-10-16T06:33:28;3.77;;;2.37;;
13753;SDS011;6948;51.216;6.778;2022-10-16T06:35:59;4.27;;;2.17;;
13753;SDS011;6948;51.216;6.778;2022-10-16T06:38:26;4.90;;;2.60;;
13753;SDS011;6948;51.216;6.778;2022-10-16T06:40:53;4.93;;;2.40;;
13753;SDS011;6948;51.216;6.778;2022-10-16T06:43:19;4.40;;;2.43;;
13753;SDS011;6948;51.216;6.778;2022-10-16T06:46:01;4.57;;;2.13;;
13753;SDS011;6948;51.216;6.778;2022-10-16T06:48:27;5.10;;;2.43;;
13753;SDS011;6948;51.216;6.778;2022-10-16T06:51:11;2.73;;;2.20;;
13753;SDS011;6948;51.216;6.778;2022-10-16T06:53:38;4.40;;;2.27;;
13753;SDS011;6948;51.216;6.778;2022-10-16T06:56:21;2.73;;;2.00;;
13753;SDS011;6948;51.216;6.778;2022-10-16T06:58:47;3.80;;;2.30;;
13753;SDS011;6948;51.216;6.778;2022-10-16T07:01:13;5.10;;;2.10;;
13753;SDS011;6948;51.216;6.778;2022-10-16T07:03:40;3.37;;;2.20;;
13753;SDS011;6948;51.216;6.778;2022-10-16T07:06:08;4.90;;;2.20;;
13753;SDS011;6948;51.216;6.778;2022-10-16T07:08:35;3.07;;;2.00;;
13753;SDS011;6948;51.216;6.778;2022-10-16T07:11:05;2.17;;;1.77;;
13753;SDS011;6948;51.216;6.778;2022-10-16T07:13:32;3.87;;;2.10;;
13753;SDS011;6948;51.216;6.778;2022-10-16T07:16:03;4.53;;;1.77;;
13753;SDS011;6948;51.216;6.778;2022-10-16T07:18:29;1.80;;;1.60;;
13753;SDS011;6948;51.216;6.778;2022-10-16T07:21:02;4.30;;;2.00;;
13753;SDS011;6948;51.216;6.778;2022-10-16T07:23:28;2.43;;;1.63;;
13753;SDS011;6948;51.216;6.778;2022-10-16T07:25:54;3.13;;;1.93;;
13753;SDS011;6948;51.216;6.778;2022-10-16T07:28:20;5.20;;;1.70;;
13753;SDS011;6948;51.216;6.778;2022-10-16T07:30:46;2.93;;;1.63;;
13753;SDS011;6948;51.216;6.778;2022-10-16T07:33:12;2.27;;;1.63;;
13753;SDS011;6948;51.216;6.778;2022-10-16T07:35:46;2.43;;;1.53;;
13753;SDS011;6948;51.216;6.778;2022-10-16T07:38:12;3.90;;;1.50;;
13753;SDS011;6948;51.216;6.778;2022-10-16T07:40:38;2.70;;;1.70;;
13753;SDS011;6948;51.216;6.778;2022-10-16T07:43:04;4.70;;;1.83;;
13753;SDS011;6948;51.216;6.778;2022-10-16T07:45:30;3.40;;;1.70;;
13753;SDS011;6948;51.216;6.778;2022-10-16T07:47:56;4.60;;;1.80;;
13753;SDS011;6948;51.216;6.778;2022-10-16T07:50:22;2.43;;;1.60;;
13753;SDS011;6948;51.216;6.778;2022-10-16T07:52:48;5.13;;;1.77;;
13753;SDS011;6948;51.216;6.778;2022-10-16T07:55:14;4.33;;;1.83;;
13753;SDS011;6948;51.216;6.778;2022-10-16T07:57:40;4.57;;;2.00;;
13753;SDS011;6948;51.216;6.778;2022-10-16T08:00:06;4.43;;;2.00;;
13753;SDS011;6948;51.216;6.778;2022-10-16T08:02:53;3.47;;;1.70;;
13753;SDS011;6948;51.216;6.778;2022-10-16T08:05:19;3.03;;;1.70;;
13753;SDS011;6948;51.216;6.778;2022-10-16T08:07:49;3.60;;;1.70;;
13753;SDS011;6948;51.216;6.778;2022-10-16T08:10:16;3.00;;;1.90;;
13753;SDS011;6948;51.216;6.778;2022-10-16T08:12:42;3.33;;;1.87;;
13753;SDS011;6948;51.216;6.778;2022-10-16T08:15:08;2.80;;;1.70;;
13753;SDS011;6948;51.216;6.778;2022-10-16T08:17:35;2.83;;;1.70;;
13753;SDS011;6948;51.216;6.778;2022-10-16T08:20:01;3.30;;;1.60;;
13753;SDS011;6948;51.216;6.778;2022-10-16T08:22:27;3.83;;;1.60;;
13753;SDS011;6948;51.216;6.778;2022-10-16T08:24:53;2.97;;;1.70;;
13753;SDS011;6948;51.216;6.778;2022-10-16T08:27:19;3.13;;;1.80;;
13753;SDS011;6948;51.216;6.778;2022-10-16T08:29:45;4.43;;;1.77;;
13753;SDS011;6948;51.216;6.778;2022-10-16T08:32:11;2.43;;;1.50;;
13753;SDS011;6948;51.216;6.778;2022-10-16T08:34:37;2.73;;;1.60;;
13753;SDS011;6948;51.216;6.778;2022-10-16T08:37:03;6.33;;;1.80;;
13753;SDS011;6948;51.216;6.778;2022-10-16T08:39:29;4.80;;;1.60;;
13753;SDS011;6948;51.216;6.778;2022-10-16T08:47:18;3.53;;;1.60;;
13753;SDS011;6948;51.216;6.778;2022-10-16T08:49:55;4.50;;;1.90;;
13753;SDS011;6948;51.216;6.778;2022-10-16T08:52:21;4.60;;;1.50;;
13753;SDS011;6948;51.216;6.778;2022-10-16T08:54:48;4.00;;;1.50;;
13753;SDS011;6948;51.216;6.778;2022-10-16T08:57:19;7.17;;;1.90;;
13753;SDS011;6948;51.216;6.778;2022-10-16T08:59:45;3.57;;;1.30;;
13753;SDS011;6948;51.216;6.778;2022-10-16T09:02:33;1.60;;;1.30;;
13753;SDS011;6948;51.216;6.778;2022-10-16T09:05:01;4.60;;;1.30;;
13753;SDS011;6948;51.216;6.778;2022-10-16T09:07:35;2.83;;;1.40;;
13753;SDS011;6948;51.216;6.778;2022-10-16T09:12:48;3.13;;;1.20;;
13753;SDS011;6948;51.216;6.778;2022-10-16T09:15:22;4.07;;;1.13;;
13753;SDS011;6948;51.216;6.778;2022-10-16T09:20:53;4.53;;;1.50;;
13753;SDS011;6948;51.216;6.778;2022-10-16T09:23:23;4.27;;;1.37;;
13753;SDS011;6948;51.216;6.778;2022-10-16T09:25:51;2.93;;;1.20;;
13753;SDS011;6948;51.216;6.778;2022-10-16T09:28:18;3.60;;;1.40;;
13753;SDS011;6948;51.216;6.778;2022-10-16T09:30:45;2.23;;;1.00;;
13753;SDS011;6948;51.216;6.778;2022-10-16T09:33:13;4.83;;;1.50;;
13753;SDS011;6948;51.216;6.778;2022-10-16T09:35:42;3.67;;;1.27;;
13753;SDS011;6948;51.216;6.778;2022-10-16T09:38:08;2.53;;;1.20;;
13753;SDS011;6948;51.216;6.778;2022-10-16T09:40:46;2.90;;;1.30;;
13753;SDS011;6948;51.216;6.778;2022-10-16T09:43:31;8.63;;;1.30;;
13753;SDS011;6948;51.216;6.778;2022-10-16T09:48:50;4.00;;;1.20;;
13753;SDS011;6948;51.216;6.778;2022-10-16T09:51:20;2.60;;;1.03;;
13753;SDS011;6948;51.216;6.778;2022-10-16T09:53:47;3.63;;;1.20;;
13753;SDS011;6948;51.216;6.778;2022-10-16T09:56:22;4.37;;;1.43;;
13753;SDS011;6948;51.216;6.778;2022-10-16T09:58:50;3.33;;;1.10;;
13753;SDS011;6948;51.216;6.778;2022-10-16T10:01:17;2.77;;;1.10;;
13753;SDS011;6948;51.216;6.778;2022-10-16T10:03:43;4.67;;;1.37;;
13753;SDS011;6948;51.216;6.778;2022-10-16T10:06:19;2.07;;;1.10;;
13753;SDS011;6948;51.216;6.778;2022-10-16T10:11:42;5.30;;;1.30;;
13753;SDS011;6948;51.216;6.778;2022-10-16T10:16:47;3.17;;;0.93;;
13753;SDS011;6948;51.216;6.778;2022-10-16T10:19:18;2.57;;;1.07;;
13753;SDS011;6948;51.216;6.778;2022-10-16T10:21:44;2.50;;;1.17;;
13753;SDS011;6948;51.216;6.778;2022-10-16T10:24:11;3.93;;;1.13;;
13753;SDS011;6948;51.216;6.778;2022-10-16T10:26:37;3.63;;;1.10;;
13753;SDS011;6948;51.216;6.778;2022-10-16T10:29:06;3.60;;;1.17;;
13753;SDS011;6948;51.216;6.778;2022-10-16T10:31:38;3.07;;;1.27;;
13753;SDS011;6948;51.216;6.778;2022-10-16T10:36:57;5.20;;;1.30;;
13753;SDS011;6948;51.216;6.778;2022-10-16T10:39:28;5.07;;;1.40;;
13753;SDS011;6948;51.216;6.778;2022-10-16T10:42:02;2.60;;;1.30;;
13753;SDS011;6948;51.216;6.778;2022-10-16T10:50:04;4.20;;;1.27;;
13753;SDS011;6948;51.216;6.778;2022-10-16T10:52:34;6.47;;;1.30;;
13753;SDS011;6948;51.216;6.778;2022-10-16T10:57:59;2.70;;;1.10;;
13753;SDS011;6948;51.216;6.778;2022-10-16T11:03:20;3.00;;;1.00;;
13753;SDS011;6948;51.216;6.778;2022-10-16T11:05:52;3.00;;;1.40;;
13753;SDS011;6948;51.216;6.778;2022-10-16T11:08:22;4.00;;;1.50;;
13753;SDS011;6948;51.216;6.778;2022-10-16T11:10:53;3.90;;;1.30;;
13753;SDS011;6948;51.216;6.778;2022-10-16T11:13:34;4.00;;;1.07;;
13753;SDS011;6948;51.216;6.778;2022-10-16T11:16:13;3.77;;;1.33;;
13753;SDS011;6948;51.216;6.778;2022-10-16T11:18:45;2.80;;;1.03;;
13753;SDS011;6948;51.216;6.778;2022-10-16T11:21:13;4.60;;;1.33;;
13753;SDS011;6948;51.216;6.778;2022-10-16T11:26:17;4.60;;;1.50;;
13753;SDS011;6948;51.216;6.778;2022-10-16T11:28:45;2.50;;;1.27;;
13753;SDS011;6948;51.216;6.778;2022-10-16T11:31:19;3.90;;;1.20;;
13753;SDS011;6948;51.216;6.778;2022-10-16T11:36:36;2.60;;;1.30;;
13753;SDS011;6948;51.216;6.778;2022-10-16T11:39:08;3.23;;;1.20;;
13753;SDS011;6948;51.216;6.778;2022-10-16T11:41:39;3.73;;;1.10;;
13753;SDS011;6948;51.216;6.778;2022-10-16T11:46:58;1.43;;;0.77;;
13753;SDS011;6948;51.216;6.778;2022-10-16T11:49:26;4.90;;;1.23;;
13753;SDS011;6948;51.216;6.778;2022-10-16T11:57:19;2.93;;;1.13;;
13753;SDS011;6948;51.216;6.778;2022-10-16T11:59:52;4.10;;;1.17;;
13753;SDS011;6948;51.216;6.778;2022-10-16T12:05:15;3.90;;;1.10;;
13753;SDS011;6948;51.216;6.778;2022-10-16T12:07:47;3.00;;;1.20;;
13753;SDS011;6948;51.216;6.778;2022-10-16T12:10:19;1.40;;;0.83;;
13753;SDS011;6948;51.216;6.778;2022-10-16T12:12:45;3.73;;;1.10;;
13753;SDS011;6948;51.216;6.778;2022-10-16T12:15:20;4.60;;;3.30;;
13753;SDS011;6948;51.216;6.778;2022-10-16T12:17:48;6.93;;;4.60;;
13753;SDS011;6948;51.216;6.778;2022-10-16T12:22:50;6.73;;;3.70;;
13753;SDS011;6948;51.216;6.778;2022-10-16T12:25:20;14.73;;;12.20;;
13753;SDS011;6948;51.216;6.778;2022-10-16T12:27:53;18.10;;;8.60;;
13753;SDS011;6948;51.216;6.778;2022-10-16T12:30:21;4.93;;;3.27;;
13753;SDS011;6948;51.216;6.778;2022-10-16T12:32:53;4.53;;;3.37;;
13753;SDS011;6948;51.216;6.778;2022-10-16T12:35:21;5.90;;;3.00;;
13753;SDS011;6948;51.216;6.778;2022-10-16T12:37:48;6.23;;;2.10;;
13753;SDS011;6948;51.216;6.778;2022-10-16T12:40:31;5.10;;;1.67;;
13753;SDS011;6948;51.216;6.778;2022-10-16T12:42:58;4.30;;;1.37;;
13753;SDS011;6948;51.216;6.778;2022-10-16T12:45:29;3.73;;;1.20;;
13753;SDS011;6948;51.216;6.778;2022-10-16T12:47:56;4.10;;;1.90;;
13753;SDS011;6948;51.216;6.778;2022-10-16T12:50:23;3.90;;;1.60;;
13753;SDS011;6948;51.216;6.778;2022-10-16T12:52:49;2.83;;;1.20;;
13753;SDS011;6948;51.216;6.778;2022-10-16T12:55:16;4.57;;;1.30;;
13753;SDS011;6948;51.216;6.778;2022-10-16T13:00:31;2.77;;;1.20;;
13753;SDS011;6948;51.216;6.778;2022-10-16T13:10:53;3.40;;;1.70;;
13753;SDS011;6948;51.216;6.778;2022-10-16T13:13:28;3.00;;;1.30;;
13753;SDS011;6948;51.216;6.778;2022-10-16T13:16:04;2.70;;;1.00;;
13753;SDS011;6948;51.216;6.778;2022-10-16T13:26:41;2.57;;;1.73;;
13753;SDS011;6948;51.216;6.778;2022-10-16T13:29:09;5.53;;;1.50;;
13753;SDS011;6948;51.216;6.778;2022-10-16T13:31:36;3.27;;;1.30;;
13753;SDS011;6948;51.216;6.778;2022-10-16T13:34:03;3.60;;;1.10;;
13753;SDS011;6948;51.216;6.778;2022-10-16T13:36:35;2.77;;;2.13;;
13753;SDS011;6948;51.216;6.778;2022-10-16T13:39:11;2.77;;;1.50;;
13753;SDS011;6948;51.216;6.778;2022-10-16T13:41:37;3.03;;;1.40;;
13753;SDS011;6948;51.216;6.778;2022-10-16T13:44:04;3.53;;;1.97;;
13753;SDS011;6948;51.216;6.778;2022-10-16T13:46:30;2.30;;;1.23;;
13753;SDS011;6948;51.216;6.778;2022-10-16T13:49:00;3.17;;;1.60;;
13753;SDS011;6948;51.216;6.778;2022-10-16T13:51:27;4.73;;;1.40;;
13753;SDS011;6948;51.216;6.778;2022-10-16T13:53:54;3.07;;;1.10;;
13753;SDS011;6948;51.216;6.778;2022-10-16T13:56:22;2.20;;;1.30;;
13753;SDS011;6948;51.216;6.778;2022-10-16T13:59:05;4.07;;;2.00;;
13753;SDS011;6948;51.216;6.778;2022-10-16T14:01:32;2.23;;;1.20;;
13753;SDS011;6948;51.216;6.778;2022-10-16T14:04:00;2.37;;;1.10;;
13753;SDS011;6948;51.216;6.778;2022-10-16T14:06:28;2.10;;;1.40;;
13753;SDS011;6948;51.216;6.778;2022-10-16T14:08:58;3.00;;;1.73;;
13753;SDS011;6948;51.216;6.778;2022-10-16T14:11:25;4.20;;;1.30;;
13753;SDS011;6948;51.216;6.778;2022-10-16T14:13:51;3.77;;;1.70;;
13753;SDS011;6948;51.216;6.778;2022-10-16T14:16:20;3.60;;;2.40;;
13753;SDS011;6948;51.216;6.778;2022-10-16T14:18:50;3.93;;;1.73;;
13753;SDS011;6948;51.216;6.778;2022-10-16T14:21:18;4.30;;;2.33;;
13753;SDS011;6948;51.216;6.778;2022-10-16T14:23:44;3.37;;;1.60;;
13753;SDS011;6948;51.216;6.778;2022-10-16T14:28:48;3.07;;;1.50;;
13753;SDS011;6948;51.216;6.778;2022-10-16T14:31:31;4.83;;;2.30;;
13753;SDS011;6948;51.216;6.778;2022-10-16T14:33:57;3.37;;;1.60;;
13753;SDS011;6948;51.216;6.778;2022-10-16T14:36:24;3.27;;;1.73;;
13753;SDS011;6948;51.216;6.778;2022-10-16T14:38:59;4.17;;;2.13;;
13753;SDS011;6948;51.216;6.778;2022-10-16T14:41:26;2.87;;;1.90;;
13753;SDS011;6948;51.216;6.778;2022-10-16T14:43:53;5.13;;;2.23;;
13753;SDS011;6948;51.216;6.778;2022-10-16T14:46:21;4.80;;;1.60;;
13753;SDS011;6948;51.216;6.778;2022-10-16T14:48:51;2.77;;;1.50;;
13753;SDS011;6948;51.216;6.778;2022-10-16T14:51:19;5.00;;;1.60;;
13753;SDS011;6948;51.216;6.778;2022-10-16T14:53:45;3.67;;;1.73;;
13753;SDS011;6948;51.216;6.778;2022-10-16T14:56:14;3.43;;;1.60;;
13753;SDS011;6948;51.216;6.778;2022-10-16T14:58:41;4.47;;;1.50;;
13753;SDS011;6948;51.216;6.778;2022-10-16T15:01:09;2.47;;;1.60;;
13753;SDS011;6948;51.216;6.778;2022-10-16T15:03:36;5.07;;;2.40;;
13753;SDS011;6948;51.216;6.778;2022-10-16T15:06:02;4.10;;;1.30;;
13753;SDS011;6948;51.216;6.778;2022-10-16T15:08:29;5.77;;;2.83;;
13753;SDS011;6948;51.216;6.778;2022-10-16T15:10:55;5.83;;;2.33;;
13753;SDS011;6948;51.216;6.778;2022-10-16T15:13:21;3.70;;;1.60;;
13753;SDS011;6948;51.216;6.778;2022-10-16T15:15:47;4.33;;;2.30;;
13753;SDS011;6948;51.216;6.778;2022-10-16T15:18:14;3.17;;;1.70;;
13753;SDS011;6948;51.216;6.778;2022-10-16T15:20:45;5.93;;;2.03;;
13753;SDS011;6948;51.216;6.778;2022-10-16T15:23:13;3.50;;;2.30;;
13753;SDS011;6948;51.216;6.778;2022-10-16T15:25:41;4.27;;;2.60;;
13753;SDS011;6948;51.216;6.778;2022-10-16T15:28:08;3.93;;;2.10;;
13753;SDS011;6948;51.216;6.778;2022-10-16T15:30:35;5.30;;;3.50;;
13753;SDS011;6948;51.216;6.778;2022-10-16T15:33:01;6.50;;;2.73;;
13753;SDS011;6948;51.216;6.778;2022-10-16T15:35:28;5.17;;;1.80;;
13753;SDS011;6948;51.216;6.778;2022-10-16T15:37:54;3.93;;;2.43;;
13753;SDS011;6948;51.216;6.778;2022-10-16T15:40:20;3.87;;;2.17;;
13753;SDS011;6948;51.216;6.778;2022-10-16T15:42:47;3.77;;;2.40;;
13753;SDS011;6948;51.216;6.778;2022-10-16T15:45:14;4.60;;;2.70;;
13753;SDS011;6948;51.216;6.778;2022-10-16T15:47:40;5.03;;;3.63;;
13753;SDS011;6948;51.216;6.778;2022-10-16T15:50:06;5.93;;;3.03;;
13753;SDS011;6948;51.216;6.778;2022-10-16T15:52:33;6.33;;;3.00;;
13753;SDS011;6948;51.216;6.778;2022-10-16T15:54:58;4.17;;;1.70;;
13753;SDS011;6948;51.216;6.778;2022-10-16T15:57:25;4.30;;;1.90;;
13753;SDS011;6948;51.216;6.778;2022-10-16T15:59:53;3.90;;;2.10;;
13753;SDS011;6948;51.216;6.778;2022-10-16T16:02:19;7.40;;;2.50;;
13753;SDS011;6948;51.216;6.778;2022-10-16T16:04:45;4.13;;;2.10;;
13753;SDS011;6948;51.216;6.778;2022-10-16T16:07:11;3.57;;;2.10;;
13753;SDS011;6948;51.216;6.778;2022-10-16T16:09:37;4.30;;;2.30;;
13753;SDS011;6948;51.216;6.778;2022-10-16T16:12:03;5.83;;;2.63;;
13753;SDS011;6948;51.216;6.778;2022-10-16T16:14:29;8.23;;;2.40;;
13753;SDS011;6948;51.216;6.778;2022-10-16T16:16:55;4.83;;;2.50;;
13753;SDS011;6948;51.216;6.778;2022-10-16T16:19:21;6.20;;;2.60;;
13753;SDS011;6948;51.216;6.778;2022-10-16T16:21:48;3.67;;;2.20;;
13753;SDS011;6948;51.216;6.778;2022-10-16T16:24:14;6.00;;;2.40;;
13753;SDS011;6948;51.216;6.778;2022-10-16T16:26:40;4.40;;;1.93;;